Time;durP1;ratioP1;P1;durP2;ratioP2;P2;SDS_P1;SDS_P2;PMS_P1;PMS_P2;Temp;Humidity;BMP_temperature;BMP_pressure;BME280_temperature;BME280_humidity;BME280_pressure;Samples;Min_cycle;Max_cycle;Signal;HPM_P1;HPM_P2
2022/06/08 00:00:41;;;;;;;18.30;16.50;;;;;;;;;;2069136;28;20177;-56
2022/06/08 00:01:42;;;;;;;18.60;16.17;;;;;;;;;;2073729;28;20195;-56
2022/06/08 00:02:44;;;;;;;17.80;15.95;;;;;;;;;;2073779;28;20185;-56
2022/06/08 00:03:49;;;;;;;18.38;16.58;;;;;;;;;;2073466;28;20212;-53
2022/06/08 00:04:49;;;;;;;18.67;16.80;;;;;;;;;;2073267;28;20176;-57
2022/06/08 00:05:49;;;;;;;21.13;18.05;;;;;;;;;;2074433;28;20169;-58
2022/06/08 00:06:51;;;;;;;19.15;17.20;;;;;;;;;;2074372;28;20243;-55
2022/06/08 00:07:51;;;;;;;19.55;17.48;;;;;;;;;;2074107;28;20173;-56
2022/06/08 00:08:52;;;;;;;18.45;16.75;;;;;;;;;;2073794;28;20673;-54
2022/06/08 00:09:52;;;;;;;19.00;17.08;;;;;;;;;;2073791;28;20181;-56
2022/06/08 00:10:52;;;;;;;19.77;17.98;;;;;;;;;;2074368;28;20248;-55
2022/06/08 00:11:54;;;;;;;20.08;17.95;;;;;;;;;;2074341;28;20164;-56
2022/06/08 00:12:54;;;;;;;20.35;18.45;;;;;;;;;;2074145;28;20727;-56
2022/06/08 00:13:54;;;;;;;19.50;17.23;;;;;;;;;;2074036;28;20180;-55
2022/06/08 00:14:55;;;;;;;19.75;17.63;;;;;;;;;;2073899;28;20172;-57
2022/06/08 00:15:56;;;;;;;20.30;18.23;;;;;;;;;;2073669;28;20176;-55
2022/06/08 00:16:56;;;;;;;20.25;18.20;;;;;;;;;;2073697;28;20197;-55
2022/06/08 00:17:57;;;;;;;19.70;17.80;;;;;;;;;;2074306;28;20247;-56
2022/06/08 00:18:57;;;;;;;21.52;19.40;;;;;;;;;;2074325;28;20180;-54
2022/06/08 00:19:57;;;;;;;19.65;17.77;;;;;;;;;;2074195;28;20200;-55
2022/06/08 00:20:58;;;;;;;21.40;19.23;;;;;;;;;;2074396;28;20160;-58
2022/06/08 00:21:59;;;;;;;21.15;19.05;;;;;;;;;;2073903;28;20180;-57
2022/06/08 00:22:59;;;;;;;21.40;19.30;;;;;;;;;;2070540;28;20176;-57
2022/06/08 00:23:59;;;;;;;21.35;19.10;;;;;;;;;;2073376;28;20176;-53
2022/06/08 00:25:00;;;;;;;21.70;19.60;;;;;;;;;;2074458;28;20173;-57
2022/06/08 00:26:00;;;;;;;22.48;20.17;;;;;;;;;;2074247;28;20171;-56
2022/06/08 00:27:01;;;;;;;21.10;19.00;;;;;;;;;;2074382;28;20165;-57
2022/06/08 00:28:01;;;;;;;21.20;18.95;;;;;;;;;;2073852;28;20700;-57
2022/06/08 00:29:03;;;;;;;20.27;18.15;;;;;;;;;;2074255;28;20184;-56
2022/06/08 00:30:05;;;;;;;21.15;18.98;;;;;;;;;;2073511;28;20181;-56
2022/06/08 00:31:06;;;;;;;20.85;18.67;;;;;;;;;;2065356;28;20166;-55
2022/06/08 00:32:07;;;;;;;19.35;17.35;;;;;;;;;;2073250;28;20644;-56
2022/06/08 00:33:07;;;;;;;18.92;17.27;;;;;;;;;;2065539;28;20262;-56
2022/06/08 00:34:08;;;;;;;19.48;17.23;;;;;;;;;;2064458;28;20202;-57
2022/06/08 00:35:09;;;;;;;18.88;16.77;;;;;;;;;;2065410;28;20169;-57
2022/06/08 00:36:09;;;;;;;18.70;16.80;;;;;;;;;;2065473;28;20166;-57
2022/06/08 00:37:10;;;;;;;18.45;16.73;;;;;;;;;;2073224;28;20185;-56
2022/06/08 00:38:10;;;;;;;20.73;18.27;;;;;;;;;;2073372;28;20311;-55
2022/06/08 00:39:11;;;;;;;19.35;17.23;;;;;;;;;;2065245;28;20292;-58
2022/06/08 00:40:12;;;;;;;19.80;17.83;;;;;;;;;;2065687;28;20848;-58
2022/06/08 00:41:12;;;;;;;18.83;16.98;;;;;;;;;;2065451;28;20224;-54
2022/06/08 00:42:13;;;;;;;18.20;16.42;;;;;;;;;;2073325;28;20271;-52
2022/06/08 00:43:15;;;;;;;18.73;17.13;;;;;;;;;;2073316;28;20255;-54
2022/06/08 00:44:24;;;;;;;18.60;16.80;;;;;;;;;;2072724;28;20552;-57
2022/06/08 00:45:25;;;;;;;18.42;16.73;;;;;;;;;;2073857;28;20165;-54
2022/06/08 00:46:25;;;;;;;18.60;16.67;;;;;;;;;;2073320;28;20685;-57
2022/06/08 00:47:34;;;;;;;18.40;16.58;;;;;;;;;;2073484;28;20177;-59
2022/06/08 00:48:38;;;;;;;18.95;17.02;;;;;;;;;;2074254;28;20172;-57
2022/06/08 00:49:42;;;;;;;19.67;17.38;;;;;;;;;;2073859;28;20267;-56
2022/06/08 00:50:44;;;;;;;18.80;16.83;;;;;;;;;;2074139;28;20320;-56
2022/06/08 00:51:45;;;;;;;18.63;16.70;;;;;;;;;;2075606;28;20601;-54
2022/06/08 00:52:46;;;;;;;20.27;18.08;;;;;;;;;;2079656;28;20180;-54
2022/06/08 00:53:53;;;;;;;19.42;17.27;;;;;;;;;;2080262;28;20252;-53
2022/06/08 00:55:00;;;;;;;18.30;16.45;;;;;;;;;;2079571;28;20180;-55
2022/06/08 00:56:02;;;;;;;18.52;16.73;;;;;;;;;;2080542;28;20161;-54
2022/06/08 00:57:10;;;;;;;18.70;16.80;;;;;;;;;;2077972;28;20612;-56
2022/06/08 00:58:13;;;;;;;18.85;16.83;;;;;;;;;;2075089;28;20252;-56
2022/06/08 00:59:13;;;;;;;17.90;16.30;;;;;;;;;;2075068;28;20693;-57
2022/06/08 01:00:24;;;;;;;17.27;15.50;;;;;;;;;;2074180;28;20252;-57
2022/06/08 01:01:24;;;;;;;18.67;16.05;;;;;;;;;;2075061;28;20232;-58
2022/06/08 01:02:25;;;;;;;17.52;15.77;;;;;;;;;;2074240;28;20720;-55
2022/06/08 01:03:27;;;;;;;16.35;14.75;;;;;;;;;;2073504;28;20172;-54
2022/06/08 01:04:30;;;;;;;16.05;14.48;;;;;;;;;;2066276;28;20178;-54
2022/06/08 01:05:35;;;;;;;16.83;15.02;;;;;;;;;;2065017;28;20733;-55
2022/06/08 01:06:39;;;;;;;15.80;14.32;;;;;;;;;;2074650;28;20185;-54
2022/06/08 01:07:41;;;;;;;16.00;14.45;;;;;;;;;;2067373;28;20178;-52
2022/06/08 01:08:44;;;;;;;18.88;16.08;;;;;;;;;;2066955;28;20165;-54
2022/06/08 01:09:49;;;;;;;16.55;15.00;;;;;;;;;;2068028;28;20508;-55
2022/06/08 01:10:51;;;;;;;17.75;16.05;;;;;;;;;;2075044;28;20260;-53
2022/06/08 01:11:55;;;;;;;17.67;15.32;;;;;;;;;;2067653;28;20703;-53
2022/06/08 01:13:01;;;;;;;18.17;16.40;;;;;;;;;;2057594;28;20663;-56
2022/06/08 01:14:02;;;;;;;16.90;15.30;;;;;;;;;;2049840;28;20230;-54
2022/06/08 01:15:03;;;;;;;17.13;15.52;;;;;;;;;;2065897;28;20208;-58
2022/06/08 01:16:05;;;;;;;16.65;15.07;;;;;;;;;;2066378;28;20964;-54
2022/06/08 01:17:08;;;;;;;16.88;15.40;;;;;;;;;;2067612;28;20169;-55
2022/06/08 01:18:09;;;;;;;17.10;15.52;;;;;;;;;;2075439;28;20215;-54
2022/06/08 01:19:11;;;;;;;17.95;16.15;;;;;;;;;;2074693;28;20235;-54
2022/06/08 01:20:12;;;;;;;17.98;16.38;;;;;;;;;;2067237;28;20181;-57
2022/06/08 01:21:22;;;;;;;18.80;17.10;;;;;;;;;;2075116;28;20200;-56
2022/06/08 01:22:30;;;;;;;18.73;16.95;;;;;;;;;;2069322;28;20177;-54
2022/06/08 01:23:30;;;;;;;20.17;18.17;;;;;;;;;;2075413;28;20204;-54
2022/06/08 01:24:31;;;;;;;19.08;17.27;;;;;;;;;;2074623;28;20670;-54
2022/06/08 01:25:34;;;;;;;19.67;17.90;;;;;;;;;;2067429;28;20170;-57
2022/06/08 01:26:43;;;;;;;19.48;17.67;;;;;;;;;;2068010;28;20705;-56
2022/06/08 01:28:04;;;;;;;19.20;17.45;;;;;;;;;;2067884;28;20201;-56
2022/06/08 01:29:20;;;;;;;20.40;18.40;;;;;;;;;;2064928;28;20696;-57
2022/06/08 01:30:23;;;;;;;20.33;18.40;;;;;;;;;;2072459;28;20563;-55
2022/06/08 01:31:45;;;;;;;20.58;18.65;;;;;;;;;;2073442;28;20168;-57
2022/06/08 01:33:04;;;;;;;21.23;19.15;;;;;;;;;;2073578;28;20611;-58
2022/06/08 01:34:16;;;;;;;20.75;18.70;;;;;;;;;;2073033;28;20189;-55
2022/06/08 01:35:17;;;;;;;21.92;19.77;;;;;;;;;;2073066;28;20187;-59
2022/06/08 01:36:19;;;;;;;21.58;19.35;;;;;;;;;;2073241;28;20172;-58
2022/06/08 01:37:27;;;;;;;22.50;20.40;;;;;;;;;;2072840;28;20188;-58
2022/06/08 01:38:38;;;;;;;22.25;20.08;;;;;;;;;;2074795;28;20215;-55
2022/06/08 01:39:52;;;;;;;22.30;20.02;;;;;;;;;;2067700;28;20220;-55
2022/06/08 01:40:58;;;;;;;23.48;20.98;;;;;;;;;;2068041;28;20165;-56
2022/06/08 01:42:07;;;;;;;23.45;21.27;;;;;;;;;;2075059;28;20215;-56
2022/06/08 01:43:20;;;;;;;24.10;21.70;;;;;;;;;;2074762;28;20246;-56
2022/06/08 01:44:20;;;;;;;23.80;21.40;;;;;;;;;;2067112;28;20201;-58
2022/06/08 01:45:28;;;;;;;23.02;20.73;;;;;;;;;;2073665;28;20169;-58
2022/06/08 01:46:32;;;;;;;23.20;20.90;;;;;;;;;;2058357;28;20175;-57
2022/06/08 01:47:39;;;;;;;22.75;20.35;;;;;;;;;;2058791;28;20269;-57
2022/06/08 01:48:55;;;;;;;23.67;21.27;;;;;;;;;;2066287;28;20170;-58
2022/06/08 01:50:14;;;;;;;23.58;21.20;;;;;;;;;;2068812;28;20180;-58
2022/06/08 01:51:14;;;;;;;23.13;20.63;;;;;;;;;;2073958;28;20196;-56
2022/06/08 01:52:30;;;;;;;21.92;20.02;;;;;;;;;;2074576;28;20187;-57
2022/06/08 01:53:35;;;;;;;21.55;19.65;;;;;;;;;;2073731;28;20184;-57
2022/06/08 01:54:44;;;;;;;20.42;18.50;;;;;;;;;;2073512;28;20208;-59
2022/06/08 01:55:50;;;;;;;20.33;18.52;;;;;;;;;;2061885;28;20182;-56
2022/06/08 01:57:09;;;;;;;20.35;18.20;;;;;;;;;;2066826;28;20178;-55
2022/06/08 01:58:17;;;;;;;20.40;18.45;;;;;;;;;;2069006;28;20654;-56
2022/06/08 01:59:33;;;;;;;20.42;18.45;;;;;;;;;;2058990;28;20229;-58
2022/06/08 02:00:40;;;;;;;18.63;17.05;;;;;;;;;;2067920;28;20178;-56
2022/06/08 02:01:41;;;;;;;20.05;18.15;;;;;;;;;;2067398;28;20178;-54
2022/06/08 02:02:41;;;;;;;19.92;18.10;;;;;;;;;;2074891;28;20184;-54
2022/06/08 02:03:50;;;;;;;20.15;18.27;;;;;;;;;;2076254;23;20205;-60
2022/06/08 02:05:00;;;;;;;18.08;16.38;;;;;;;;;;2067999;28;20288;-60
2022/06/08 02:06:06;;;;;;;18.13;16.35;;;;;;;;;;2064389;28;20296;-58
2022/06/08 02:07:15;;;;;;;18.60;16.90;;;;;;;;;;2058944;28;20241;-60
2022/06/08 02:08:31;;;;;;;18.38;16.48;;;;;;;;;;2060479;28;20195;-62
2022/06/08 02:09:44;;;;;;;19.13;17.35;;;;;;;;;;2076721;28;20164;-54
2022/06/08 02:10:45;;;;;;;18.00;16.30;;;;;;;;;;2073942;28;20187;-57
2022/06/08 02:11:50;;;;;;;20.25;18.23;;;;;;;;;;2074849;28;20184;-59
2022/06/08 02:13:14;;;;;;;20.95;18.95;;;;;;;;;;2072568;28;20197;-60
2022/06/08 02:14:23;;;;;;;23.13;18.38;;;;;;;;;;2074027;28;20433;-58
2022/06/08 02:15:32;;;;;;;20.17;18.17;;;;;;;;;;2052032;28;20571;-58
2022/06/08 02:16:34;;;;;;;20.52;18.42;;;;;;;;;;2047716;28;20187;-55
2022/06/08 02:17:41;;;;;;;20.42;18.42;;;;;;;;;;2067416;28;20173;-60
2022/06/08 02:18:45;;;;;;;20.27;18.27;;;;;;;;;;2060510;28;20179;-59
2022/06/08 02:19:48;;;;;;;21.75;19.55;;;;;;;;;;2060967;28;20210;-57
2022/06/08 02:20:59;;;;;;;20.55;18.58;;;;;;;;;;2061821;28;20264;-59
2022/06/08 02:22:19;;;;;;;20.10;18.10;;;;;;;;;;2071731;28;20177;-59
2022/06/08 02:23:24;;;;;;;19.55;17.60;;;;;;;;;;2053154;28;20207;-55
2022/06/08 02:24:32;;;;;;;21.08;18.98;;;;;;;;;;2047377;28;20206;-57
2022/06/08 02:25:36;;;;;;;22.27;20.15;;;;;;;;;;2049940;28;20274;-56
2022/06/08 02:26:41;;;;;;;21.90;19.63;;;;;;;;;;2056790;28;20170;-52
2022/06/08 02:27:46;;;;;;;21.15;19.20;;;;;;;;;;2056536;28;20174;-56
2022/06/08 02:28:52;;;;;;;20.63;18.73;;;;;;;;;;2048602;28;20174;-52
2022/06/08 02:29:56;;;;;;;20.98;18.85;;;;;;;;;;2056566;28;20261;-56
2022/06/08 02:31:04;;;;;;;21.38;19.25;;;;;;;;;;2056153;28;20174;-55
2022/06/08 02:34:27;;;;;;;23.00;19.20;;;;;;;;;;2049464;28;20600;-57
2022/06/08 02:34:53;;;;;;;21.45;19.33;;;;;;;;;;2058740;28;20205;-57
2022/06/08 02:35:56;;;;;;;21.60;19.60;;;;;;;;;;2064548;28;20165;-59
2022/06/08 02:37:12;;;;;;;21.73;19.65;;;;;;;;;;2056376;28;20483;-55
2022/06/08 02:38:14;;;;;;;22.85;20.45;;;;;;;;;;2050375;28;20191;-56
2022/06/08 02:39:18;;;;;;;22.70;20.50;;;;;;;;;;2059070;28;20647;-55
2022/06/08 02:40:20;;;;;;;22.35;19.75;;;;;;;;;;2056274;28;20185;-52
2022/06/08 02:41:24;;;;;;;22.55;20.35;;;;;;;;;;2056538;28;20170;-54
2022/06/08 02:42:27;;;;;;;22.25;20.10;;;;;;;;;;2056991;28;20197;-53
2022/06/08 02:43:46;;;;;;;24.05;21.60;;;;;;;;;;2056283;28;20205;-56
2022/06/08 02:44:54;;;;;;;25.40;22.80;;;;;;;;;;2048288;28;20155;-59
2022/06/08 02:45:58;;;;;;;23.27;21.02;;;;;;;;;;2040971;29;20188;-54
2022/06/08 02:47:02;;;;;;;24.20;21.75;;;;;;;;;;2040849;29;20206;-57
2022/06/08 02:48:09;;;;;;;23.75;21.58;;;;;;;;;;2042882;29;20631;-57
2022/06/08 02:49:10;;;;;;;22.50;20.40;;;;;;;;;;2053389;28;20628;-57
2022/06/08 02:50:16;;;;;;;23.35;20.88;;;;;;;;;;2066064;28;20221;-57
2022/06/08 02:51:24;;;;;;;23.70;21.20;;;;;;;;;;2064688;28;20180;-57
2022/06/08 02:52:25;;;;;;;22.20;20.10;;;;;;;;;;2064815;28;20280;-56
2022/06/08 02:53:29;;;;;;;23.73;21.23;;;;;;;;;;2056999;28;20219;-57
2022/06/08 02:54:30;;;;;;;24.70;22.02;;;;;;;;;;2047894;29;20191;-57
2022/06/08 02:55:45;;;;;;;23.02;20.63;;;;;;;;;;2057011;28;20193;-69
2022/06/08 02:56:50;;;;;;;23.55;21.23;;;;;;;;;;2064556;28;20666;-57
2022/06/08 02:57:58;;;;;;;22.90;20.50;;;;;;;;;;2056535;28;20170;-56
2022/06/08 02:59:01;;;;;;;22.08;19.88;;;;;;;;;;2049359;28;20204;-55
2022/06/08 03:00:02;;;;;;;24.67;21.27;;;;;;;;;;2048827;28;20265;-55
2022/06/08 03:01:08;;;;;;;22.98;20.85;;;;;;;;;;2056684;28;20281;-54
2022/06/08 03:02:13;;;;;;;23.85;21.45;;;;;;;;;;2056482;28;20186;-55
2022/06/08 03:03:19;;;;;;;25.75;22.88;;;;;;;;;;2048680;28;20206;-54
2022/06/08 03:04:22;;;;;;;27.48;24.67;;;;;;;;;;2048087;28;20265;-55
2022/06/08 03:05:22;;;;;;;26.67;23.98;;;;;;;;;;2048856;28;20175;-59
2022/06/08 03:06:25;;;;;;;26.15;23.45;;;;;;;;;;2048660;28;20763;-57
2022/06/08 03:07:28;;;;;;;27.95;24.98;;;;;;;;;;2056396;28;20538;-54
2022/06/08 03:08:32;;;;;;;31.25;26.20;;;;;;;;;;2056569;28;20232;-54
2022/06/08 03:09:33;;;;;;;28.92;25.92;;;;;;;;;;2056111;28;20178;-53
2022/06/08 03:10:38;;;;;;;26.83;24.15;;;;;;;;;;2057573;28;20309;-57
2022/06/08 03:11:41;;;;;;;28.00;25.23;;;;;;;;;;2058200;28;20186;-56
2022/06/08 03:12:54;;;;;;;27.35;24.48;;;;;;;;;;2056608;28;20178;-56
2022/06/08 03:13:55;;;;;;;28.10;25.23;;;;;;;;;;2058295;28;20198;-55
2022/06/08 03:14:56;;;;;;;30.85;25.95;;;;;;;;;;2057537;28;20194;-55
2022/06/08 03:16:02;;;;;;;30.05;26.98;;;;;;;;;;2058131;28;20174;-56
2022/06/08 03:17:05;;;;;;;29.45;26.08;;;;;;;;;;2066052;28;20189;-54
2022/06/08 03:18:06;;;;;;;29.25;26.20;;;;;;;;;;2058053;28;20180;-55
2022/06/08 03:19:07;;;;;;;31.08;27.88;;;;;;;;;;2057137;28;20225;-55
2022/06/08 03:20:09;;;;;;;29.75;26.55;;;;;;;;;;2064754;28;20272;-53
2022/06/08 03:21:09;;;;;;;29.00;25.98;;;;;;;;;;2058169;28;20178;-58
2022/06/08 03:22:10;;;;;;;28.77;25.98;;;;;;;;;;2066104;28;20205;-55
2022/06/08 03:23:11;;;;;;;30.73;27.48;;;;;;;;;;2066073;28;20170;-53
2022/06/08 03:24:11;;;;;;;29.42;26.23;;;;;;;;;;2050837;28;20222;-56
2022/06/08 03:25:14;;;;;;;31.67;25.98;;;;;;;;;;2050061;28;20211;-57
2022/06/08 03:26:18;;;;;;;29.30;26.20;;;;;;;;;;2042748;29;20695;-55
2022/06/08 03:27:19;;;;;;;29.70;26.55;;;;;;;;;;2041986;29;20191;-54
2022/06/08 03:28:24;;;;;;;28.90;24.80;;;;;;;;;;2050703;28;20265;-52
2022/06/08 03:29:27;;;;;;;27.88;24.98;;;;;;;;;;2057267;28;20573;-55
2022/06/08 03:30:29;;;;;;;27.88;24.73;;;;;;;;;;2057861;28;20174;-53
2022/06/08 03:31:33;;;;;;;30.77;26.38;;;;;;;;;;2058050;28;20553;-52
2022/06/08 03:32:34;;;;;;;33.83;28.35;;;;;;;;;;2058210;28;20182;-55
2022/06/08 03:33:35;;;;;;;31.60;27.45;;;;;;;;;;2050503;28;20175;-60
2022/06/08 03:34:36;;;;;;;31.77;28.38;;;;;;;;;;2058649;28;20276;-56
2022/06/08 03:35:37;;;;;;;31.85;26.88;;;;;;;;;;2067751;28;20195;-57
2022/06/08 03:36:38;;;;;;;31.08;27.88;;;;;;;;;;2066680;28;20188;-56
2022/06/08 03:37:38;;;;;;;31.27;27.88;;;;;;;;;;2057907;28;20211;-53
2022/06/08 03:38:42;;;;;;;31.67;28.35;;;;;;;;;;2058029;28;20178;-56
2022/06/08 03:39:43;;;;;;;31.33;27.98;;;;;;;;;;2055502;28;20626;-60
2022/06/08 03:40:43;;;;;;;30.60;27.20;;;;;;;;;;2057938;28;20175;-52
2022/06/08 03:41:46;;;;;;;33.28;27.70;;;;;;;;;;2065870;28;20189;-55
2022/06/08 03:42:46;;;;;;;31.63;27.77;;;;;;;;;;2068029;28;20195;-58
2022/06/08 03:43:47;;;;;;;32.72;27.67;;;;;;;;;;2059671;28;20177;-57
2022/06/08 03:44:47;;;;;;;32.20;26.75;;;;;;;;;;2058882;28;20167;-59
2022/06/08 03:45:49;;;;;;;32.25;28.02;;;;;;;;;;2051651;28;20167;-61
2022/06/08 03:46:51;;;;;;;29.98;26.70;;;;;;;;;;2051853;28;20241;-59
2022/06/08 03:47:52;;;;;;;30.42;27.20;;;;;;;;;;2051440;28;20171;-61
2022/06/08 03:48:54;;;;;;;28.30;24.67;;;;;;;;;;2050923;29;20179;-59
2022/06/08 03:49:57;;;;;;;28.02;25.13;;;;;;;;;;2050898;28;20179;-59
2022/06/08 03:50:59;;;;;;;26.88;24.13;;;;;;;;;;2051786;28;20175;-57
2022/06/08 03:52:00;;;;;;;27.20;24.30;;;;;;;;;;2050315;29;20690;-57
2022/06/08 03:53:09;;;;;;;26.83;24.00;;;;;;;;;;2042789;29;20168;-58
2022/06/08 03:54:16;;;;;;;27.13;24.13;;;;;;;;;;2042613;29;20303;-61
2022/06/08 03:55:19;;;;;;;25.92;22.92;;;;;;;;;;2044807;28;20744;-57
2022/06/08 03:56:20;;;;;;;26.92;23.88;;;;;;;;;;2058155;28;20189;-57
2022/06/08 03:57:21;;;;;;;25.80;23.15;;;;;;;;;;2058969;28;20249;-59
2022/06/08 03:58:21;;;;;;;24.13;21.45;;;;;;;;;;2058950;28;20170;-58
2022/06/08 03:59:23;;;;;;;28.00;24.98;;;;;;;;;;2059884;28;20596;-56
2022/06/08 04:00:25;;;;;;;29.30;25.20;;;;;;;;;;2057735;28;20178;-54
2022/06/08 04:01:36;;;;;;;29.52;25.58;;;;;;;;;;2058856;28;20257;-54
2022/06/08 04:02:37;;;;;;;27.17;23.52;;;;;;;;;;2055750;28;20233;-57
2022/06/08 04:03:38;;;;;;;31.00;25.83;;;;;;;;;;2057438;28;20184;-56
2022/06/08 04:04:39;;;;;;;31.00;25.20;;;;;;;;;;2049856;28;20167;-52
2022/06/08 04:05:40;;;;;;;30.92;26.23;;;;;;;;;;2041618;29;20200;-54
2022/06/08 04:06:46;;;;;;;31.42;26.85;;;;;;;;;;2049403;28;20218;-55
2022/06/08 04:07:47;;;;;;;28.17;24.67;;;;;;;;;;2049639;28;20159;-55
2022/06/08 04:08:47;;;;;;;30.42;25.33;;;;;;;;;;2056668;28;20177;-51
2022/06/08 04:09:48;;;;;;;30.08;26.45;;;;;;;;;;2057544;28;20735;-53
2022/06/08 04:10:49;;;;;;;31.45;26.77;;;;;;;;;;2057374;28;20201;-58
2022/06/08 04:11:49;;;;;;;29.45;25.67;;;;;;;;;;2057457;28;20183;-54
2022/06/08 04:12:50;;;;;;;32.20;25.65;;;;;;;;;;2049140;28;20614;-53
2022/06/08 04:13:51;;;;;;;32.17;24.95;;;;;;;;;;2057447;28;20183;-52
2022/06/08 04:14:54;;;;;;;28.95;24.92;;;;;;;;;;2051073;28;20202;-57
2022/06/08 04:15:55;;;;;;;33.75;25.42;;;;;;;;;;2054754;28;20601;-53
2022/06/08 04:17:01;;;;;;;26.75;23.90;;;;;;;;;;2057364;28;20268;-55
2022/06/08 04:18:02;;;;;;;27.98;24.45;;;;;;;;;;2057285;28;20166;-54
2022/06/08 04:19:02;;;;;;;29.27;24.92;;;;;;;;;;2052893;28;20213;-53
2022/06/08 04:20:07;;;;;;;32.22;24.45;;;;;;;;;;2062642;28;20173;-53
2022/06/08 04:21:08;;;;;;;29.35;24.50;;;;;;;;;;2059539;28;20213;-56
2022/06/08 04:22:15;;;;;;;27.15;23.70;;;;;;;;;;2054945;28;20166;-60
2022/06/08 04:23:17;;;;;;;27.88;24.33;;;;;;;;;;2065461;28;20188;-55
2022/06/08 04:24:18;;;;;;;27.92;23.38;;;;;;;;;;2064405;28;20864;-56
2022/06/08 04:25:24;;;;;;;26.23;23.38;;;;;;;;;;2057990;28;20174;-50
2022/06/08 04:26:27;;;;;;;25.40;22.70;;;;;;;;;;2057211;28;20174;-55
2022/06/08 04:27:34;;;;;;;27.67;23.70;;;;;;;;;;2042249;29;20180;-55
2022/06/08 04:28:34;;;;;;;33.97;25.20;;;;;;;;;;2049310;29;20178;-53
2022/06/08 04:29:41;;;;;;;28.42;24.70;;;;;;;;;;2056832;28;20600;-57
2022/06/08 04:30:41;;;;;;;30.23;25.60;;;;;;;;;;2050081;29;20270;-53
2022/06/08 04:31:42;;;;;;;34.25;27.13;;;;;;;;;;2050006;29;20185;-56
2022/06/08 04:32:59;;;;;;;32.55;28.15;;;;;;;;;;2055761;28;20221;-58
2022/06/08 04:34:04;;;;;;;30.67;25.88;;;;;;;;;;2056399;28;20221;-53
2022/06/08 04:35:07;;;;;;;36.85;30.05;;;;;;;;;;2057371;28;20170;-56
2022/06/08 04:36:08;;;;;;;41.45;32.63;;;;;;;;;;2050225;28;20179;-57
2022/06/08 04:37:10;;;;;;;41.55;33.72;;;;;;;;;;2065366;28;20263;-56
2022/06/08 04:38:16;;;;;;;40.47;32.63;;;;;;;;;;2059953;28;20205;-51
2022/06/08 04:39:16;;;;;;;39.00;31.65;;;;;;;;;;2065348;28;20256;-53
2022/06/08 04:40:32;;;;;;;42.70;32.97;;;;;;;;;;2063469;28;20248;-53
2022/06/08 04:41:34;;;;;;;41.78;33.63;;;;;;;;;;2065600;28;20261;-58
2022/06/08 04:42:35;;;;;;;45.75;36.25;;;;;;;;;;2065500;28;20174;-56
2022/06/08 04:43:35;;;;;;;44.47;35.80;;;;;;;;;;2065129;28;20189;-55
2022/06/08 04:44:36;;;;;;;46.22;35.22;;;;;;;;;;2064611;28;20561;-57
2022/06/08 04:45:40;;;;;;;47.03;36.92;;;;;;;;;;2065293;28;20186;-54
2022/06/08 04:46:43;;;;;;;46.42;37.17;;;;;;;;;;2057256;28;20173;-56
2022/06/08 04:47:49;;;;;;;45.10;35.38;;;;;;;;;;2049852;28;20172;-57
2022/06/08 04:48:51;;;;;;;49.75;38.47;;;;;;;;;;2049240;28;20254;-57
2022/06/08 04:49:55;;;;;;;50.03;38.72;;;;;;;;;;2053114;28;20241;-54
2022/06/08 04:50:57;;;;;;;48.17;37.30;;;;;;;;;;2057557;28;20178;-56
2022/06/08 04:51:57;;;;;;;50.35;38.40;;;;;;;;;;2057275;28;20177;-55
2022/06/08 04:52:58;;;;;;;48.08;38.30;;;;;;;;;;2065404;28;20577;-57
2022/06/08 04:53:59;;;;;;;51.40;39.40;;;;;;;;;;2071115;28;20628;-54
2022/06/08 04:55:02;;;;;;;59.10;40.63;;;;;;;;;;2065420;28;20227;-57
2022/06/08 04:56:02;;;;;;;49.45;38.67;;;;;;;;;;2065602;28;20554;-52
2022/06/08 04:57:05;;;;;;;53.13;41.05;;;;;;;;;;2065397;28;20676;-55
2022/06/08 04:58:07;;;;;;;57.35;39.88;;;;;;;;;;2065252;28;20777;-58
2022/06/08 04:59:09;;;;;;;50.78;38.65;;;;;;;;;;2065285;28;20184;-57
2022/06/08 05:00:16;;;;;;;55.63;40.78;;;;;;;;;;2055907;28;20166;-54
2022/06/08 05:01:17;;;;;;;50.78;40.65;;;;;;;;;;2058353;28;20270;-57
2022/06/08 05:03:40;;;;;;;55.25;40.70;;;;;;;;;;2059703;28;20173;-53
2022/06/08 05:04:40;;;;;;;50.45;39.33;;;;;;;;;;2056592;28;20318;-51
2022/06/08 05:05:40;;;;;;;51.80;40.08;;;;;;;;;;2049144;28;20187;-59
2022/06/08 05:06:48;;;;;;;53.00;40.08;;;;;;;;;;2057167;28;20210;-53
2022/06/08 05:07:50;;;;;;;61.13;40.92;;;;;;;;;;2055792;28;20177;-55
2022/06/08 05:08:51;;;;;;;56.03;40.97;;;;;;;;;;2049321;28;20194;-53
2022/06/08 05:09:52;;;;;;;55.78;40.58;;;;;;;;;;2056323;28;20166;-52
2022/06/08 05:10:53;;;;;;;70.25;42.97;;;;;;;;;;2054007;28;20189;-56
2022/06/08 05:11:55;;;;;;;53.30;40.10;;;;;;;;;;2057351;28;20174;-60
2022/06/08 05:12:57;;;;;;;53.35;38.67;;;;;;;;;;2062755;28;20224;-55
2022/06/08 05:13:58;;;;;;;50.60;39.88;;;;;;;;;;2064203;28;20201;-55
2022/06/08 05:14:59;;;;;;;51.40;38.78;;;;;;;;;;2064851;28;20177;-53
2022/06/08 05:16:01;;;;;;;49.25;38.25;;;;;;;;;;2056768;28;20202;-52
2022/06/08 05:17:01;;;;;;;51.33;38.97;;;;;;;;;;2041888;28;20198;-53
2022/06/08 05:18:03;;;;;;;53.15;39.67;;;;;;;;;;2043516;29;20191;-56
2022/06/08 05:19:03;;;;;;;53.78;40.85;;;;;;;;;;2048918;28;20202;-54
2022/06/08 05:20:04;;;;;;;52.70;39.20;;;;;;;;;;2042588;29;20239;-56
2022/06/08 05:21:05;;;;;;;55.38;41.45;;;;;;;;;;2056895;28;20166;-54
2022/06/08 05:22:07;;;;;;;55.92;40.92;;;;;;;;;;2048574;29;20616;-54
2022/06/08 05:23:11;;;;;;;56.03;41.25;;;;;;;;;;2045715;29;20187;-59
2022/06/08 05:24:11;;;;;;;57.25;38.85;;;;;;;;;;2041619;29;20758;-56
2022/06/08 05:25:24;;;;;;;57.95;42.45;;;;;;;;;;2047000;28;20175;-54
2022/06/08 05:26:25;;;;;;;55.97;41.65;;;;;;;;;;2049302;28;20227;-57
2022/06/08 05:27:25;;;;;;;58.30;40.83;;;;;;;;;;2056854;28;20217;-57
2022/06/08 05:28:26;;;;;;;61.92;42.42;;;;;;;;;;2056703;28;20674;-53
2022/06/08 05:29:31;;;;;;;58.65;42.30;;;;;;;;;;2064831;28;20199;-55
2022/06/08 05:30:35;;;;;;;58.53;42.05;;;;;;;;;;2055911;28;20205;-55
2022/06/08 05:31:35;;;;;;;62.35;43.53;;;;;;;;;;2055809;28;20671;-53
2022/06/08 05:32:37;;;;;;;64.40;42.28;;;;;;;;;;2061554;28;20562;-56
2022/06/08 05:33:37;;;;;;;63.40;44.78;;;;;;;;;;2059165;28;20192;-59
2022/06/08 05:34:46;;;;;;;62.65;41.88;;;;;;;;;;2059898;28;20200;-63
2022/06/08 05:35:48;;;;;;;65.32;44.63;;;;;;;;;;2055755;28;20240;-65
2022/06/08 05:36:50;;;;;;;71.22;47.38;;;;;;;;;;2048320;28;20177;-64
2022/06/08 05:37:56;;;;;;;67.72;45.10;;;;;;;;;;2056862;28;20167;-65
2022/06/08 05:38:58;;;;;;;67.68;46.63;;;;;;;;;;2063843;28;20201;-62
2022/06/08 05:40:04;;;;;;;67.32;43.78;;;;;;;;;;2055711;28;20178;-61
2022/06/08 05:41:06;;;;;;;68.00;45.17;;;;;;;;;;2048144;29;20175;-66
2022/06/08 05:42:10;;;;;;;66.43;45.10;;;;;;;;;;2047276;28;20181;-64
2022/06/08 05:43:13;;;;;;;69.63;46.33;;;;;;;;;;2048513;28;20187;-64
2022/06/08 05:44:20;;;;;;;69.70;45.42;;;;;;;;;;2047924;28;20191;-64
2022/06/08 05:45:25;;;;;;;64.05;43.47;;;;;;;;;;2043893;28;20267;-62
2022/06/08 05:46:26;;;;;;;62.00;42.80;;;;;;;;;;2052784;28;20566;-64
2022/06/08 05:47:32;;;;;;;66.70;44.05;;;;;;;;;;2054071;28;20273;-57
2022/06/08 05:48:33;;;;;;;60.65;42.08;;;;;;;;;;2064082;28;20194;-56
2022/06/08 05:49:37;;;;;;;61.88;41.25;;;;;;;;;;2064967;28;20268;-55
2022/06/08 05:50:40;;;;;;;58.53;40.83;;;;;;;;;;2054327;28;20205;-58
2022/06/08 05:51:44;;;;;;;57.88;39.67;;;;;;;;;;2063363;28;20244;-53
2022/06/08 05:52:47;;;;;;;59.47;41.65;;;;;;;;;;2055853;28;20217;-54
2022/06/08 05:53:47;;;;;;;55.63;39.80;;;;;;;;;;2056380;28;20531;-56
2022/06/08 05:54:48;;;;;;;56.47;40.03;;;;;;;;;;2063768;28;20641;-55
2022/06/08 05:55:48;;;;;;;56.22;40.50;;;;;;;;;;2063998;28;20216;-53
2022/06/08 05:56:49;;;;;;;61.08;41.00;;;;;;;;;;2065128;28;20182;-52
2022/06/08 05:57:54;;;;;;;54.65;39.45;;;;;;;;;;2059380;28;20184;-54
2022/06/08 05:58:57;;;;;;;54.80;38.72;;;;;;;;;;2047608;28;20538;-55
2022/06/08 05:59:57;;;;;;;55.00;39.53;;;;;;;;;;2048628;29;20698;-57
2022/06/08 06:00:58;;;;;;;54.05;39.05;;;;;;;;;;2050095;28;20292;-53
2022/06/08 06:01:59;;;;;;;53.28;38.38;;;;;;;;;;2055984;28;20201;-51
2022/06/08 06:03:00;;;;;;;51.35;36.40;;;;;;;;;;2064529;28;20228;-54
2022/06/08 06:04:05;;;;;;;49.30;35.25;;;;;;;;;;2047716;28;20190;-50
2022/06/08 06:05:06;;;;;;;47.78;36.63;;;;;;;;;;2056952;28;20209;-54
2022/06/08 06:06:06;;;;;;;50.13;35.60;;;;;;;;;;2064404;28;20180;-54
2022/06/08 06:07:07;;;;;;;51.47;36.20;;;;;;;;;;2048592;29;20179;-54
2022/06/08 06:08:09;;;;;;;49.38;37.20;;;;;;;;;;2055929;28;20177;-56
2022/06/08 06:09:13;;;;;;;49.08;36.33;;;;;;;;;;2063434;28;20193;-51
2022/06/08 06:10:15;;;;;;;48.95;37.22;;;;;;;;;;2053048;28;20197;-53
2022/06/08 06:11:15;;;;;;;46.80;36.22;;;;;;;;;;2056785;28;20547;-51
2022/06/08 06:12:19;;;;;;;49.92;36.40;;;;;;;;;;2056271;28;20667;-54
2022/06/08 06:13:20;;;;;;;44.95;34.85;;;;;;;;;;2062361;28;20170;-53